Flight Briefing for CMB811

Departure Arrival
Daniel K Inouye International Airport (PHNL)
Click to view FAA NOTAMS
Bucholz AAF Airport (PKWA)
Click to view FAA NOTAMS
Departure Time Arrival Time
N/A N/A
Aircraft Distance
B757-200SF 2127nm
Departure METAR Arrival METAR
PHNL 250153Z 10009G17KT 10SM FEW024 FEW036 SCT047 31/21 A3003 RMK AO2 SLP170 T03060206 $ PKWA 250240Z AUTO 14003KT 10SM CLR 31/25 A2983 RMK AO2 T03090252
Suggested Route
OPIHI2 CHOKO R584 MCFLY R584 MAZZA 1000N/17300E NDJ


View recent IFR Routes data
Notes
USTRANSCOM CONTRACT FLIGHT | LIMITED FUEL AVBL TO NON-DOD ACFT, TANKERING RCMD

Charts and Procedures

Charts for PHNL
No chart available
Charts for PKWA
No chart available

Windy.com Weather Map